createdAt,value
2023-04-05T00:00:42.735Z,77809.59
2023-04-05T00:03:11.234Z,77803.47
2023-04-05T00:05:40.526Z,77803.47
2023-04-05T00:08:13.363Z,77807.53
2023-04-05T00:10:42.705Z,77795.31
2023-04-05T00:13:10.542Z,77807.53
2023-04-05T00:15:38.316Z,77811.63
2023-04-05T00:18:06.546Z,77815.69
2023-04-05T00:20:37.364Z,77815.69
2023-04-05T00:23:06.547Z,77815.69
2023-04-05T00:25:34.345Z,77811.63
2023-04-05T00:28:03.758Z,77819.78
2023-04-05T00:30:31.882Z,77827.94
2023-04-05T00:32:59.671Z,77840.19
2023-04-05T00:35:28.646Z,77852.41
2023-04-05T00:37:57.033Z,77852.41
2023-04-05T00:40:25.023Z,77856.50
2023-04-05T00:42:52.811Z,77852.41
2023-04-05T00:45:22.283Z,77850.38
2023-04-05T00:47:50.138Z,77856.50
2023-04-05T00:50:18.265Z,77848.34
2023-04-05T00:52:46.981Z,77856.50
2023-04-05T00:55:15.230Z,77862.63
2023-04-05T00:57:45.153Z,77864.66
2023-04-05T01:00:15.522Z,77860.56
2023-04-05T01:02:46.987Z,77880.97
2023-04-05T01:05:29.552Z,77895.25
2023-04-05T01:08:03.078Z,77893.22
2023-04-05T01:10:36.551Z,77907.50
2023-04-05T01:13:04.780Z,77909.53
2023-04-05T01:15:32.988Z,77915.66
2023-04-05T01:18:02.957Z,77917.69
2023-04-05T01:20:35.361Z,77915.66
2023-04-05T01:23:25.101Z,77909.53
2023-04-05T01:26:23.190Z,77905.47
2023-04-05T01:29:05.456Z,77903.41
2023-04-05T01:31:42.737Z,77905.47
2023-04-05T01:34:21.548Z,77905.47
2023-04-05T01:36:55.474Z,77901.38
2023-04-05T01:39:24.888Z,77909.53
2023-04-05T01:41:52.780Z,77913.63
2023-04-05T01:44:20.502Z,77913.63
2023-04-05T01:46:49.676Z,77929.94
2023-04-05T01:49:17.808Z,77938.09
2023-04-05T01:51:45.649Z,77938.09
2023-04-05T01:54:13.465Z,77940.13
2023-04-05T01:56:41.361Z,77944.22
2023-04-05T01:59:09.147Z,77936.06
2023-04-05T02:01:36.932Z,77938.09
2023-04-05T02:04:06.108Z,77948.28
2023-04-05T02:06:33.856Z,77944.22
2023-04-05T02:09:01.590Z,77950.34
2023-04-05T02:11:29.384Z,77960.53
2023-04-05T02:13:57.166Z,77964.59
2023-04-05T02:16:27.182Z,77966.66
2023-04-05T02:18:57.824Z,77962.56
2023-04-05T02:21:27.567Z,77956.44
2023-04-05T02:23:55.671Z,77950.34
2023-04-05T02:26:23.398Z,77954.41
2023-04-05T02:28:51.160Z,77958.50
2023-04-05T02:31:19.148Z,77960.53
2023-04-05T02:33:48.781Z,77964.59
2023-04-05T02:36:16.592Z,77958.50
2023-04-05T02:38:45.724Z,77954.41
2023-04-05T02:41:13.481Z,77960.53
2023-04-05T02:43:41.362Z,77962.56
2023-04-05T02:46:09.223Z,77970.72
2023-04-05T02:48:37.367Z,77978.88
2023-04-05T02:51:05.286Z,77985.00
2023-04-05T02:53:33.082Z,77987.06
2023-04-05T02:56:02.193Z,77991.13
2023-04-05T02:58:29.963Z,77987.06
2023-04-05T03:00:57.737Z,77987.06
2023-04-05T03:03:26.260Z,77987.06
2023-04-05T03:06:00.421Z,77987.06
2023-04-05T03:08:28.817Z,77989.09
2023-04-05T03:10:56.623Z,77995.22
2023-04-05T03:13:25.804Z,78005.41
2023-04-05T03:15:54.943Z,78019.69
2023-04-05T03:18:22.657Z,78017.66
2023-04-05T03:20:50.485Z,78027.84
2023-04-05T03:23:18.606Z,78027.84
2023-04-05T03:25:46.331Z,78023.78
2023-04-05T03:28:15.342Z,78023.78
2023-04-05T03:30:44.575Z,78021.72
2023-04-05T03:33:12.704Z,78019.69
2023-04-05T03:35:40.965Z,78017.66
2023-04-05T03:38:08.944Z,78019.69
2023-04-05T03:40:36.666Z,78023.78
2023-04-05T03:43:04.446Z,78036.00
2023-04-05T03:45:32.248Z,78036.00
2023-04-05T03:48:03.110Z,78036.00
2023-04-05T03:50:30.899Z,78044.16
2023-04-05T03:52:58.676Z,78052.31
2023-04-05T03:55:26.462Z,78044.16
2023-04-05T03:57:54.814Z,78048.25
2023-04-05T04:00:23.899Z,78046.22
2023-04-05T04:02:52.647Z,78060.50
2023-04-05T04:05:22.264Z,78054.38
2023-04-05T04:07:50.177Z,78062.53
2023-04-05T04:10:18.709Z,78058.44
2023-04-05T04:12:46.663Z,78060.50
2023-04-05T04:15:14.468Z,78060.50
2023-04-05T04:17:42.572Z,78074.78
2023-04-05T04:20:11.354Z,78076.81
2023-04-05T04:22:40.853Z,78076.81
2023-04-05T04:25:11.004Z,78078.84
2023-04-05T04:27:40.354Z,78076.81
2023-04-05T04:30:10.394Z,78078.84
2023-04-05T04:32:55.355Z,78084.97
2023-04-05T04:35:25.707Z,78078.84
2023-04-05T04:37:57.998Z,78068.66
2023-04-05T04:40:29.288Z,78064.56
2023-04-05T04:42:58.758Z,78064.56
2023-04-05T04:45:27.125Z,78064.56
2023-04-05T04:47:54.940Z,78074.78
2023-04-05T04:50:22.854Z,78072.72
2023-04-05T04:52:50.728Z,78076.81
2023-04-05T04:55:25.255Z,78080.88
2023-04-05T04:57:53.585Z,78068.66
2023-04-05T05:00:22.770Z,78060.50
2023-04-05T05:02:52.231Z,78060.50
2023-04-05T05:05:22.601Z,78052.31
2023-04-05T05:07:52.768Z,78040.09
2023-04-05T05:10:22.102Z,78040.09
2023-04-05T05:12:49.861Z,78031.94
2023-04-05T05:15:17.589Z,78015.59
2023-04-05T05:17:45.886Z,78011.53
2023-04-05T05:20:13.841Z,78005.41
2023-04-05T05:22:42.427Z,77995.22
2023-04-05T05:25:12.385Z,77995.22
2023-04-05T05:27:42.008Z,77991.13
2023-04-05T05:30:11.149Z,77987.06
2023-04-05T05:32:40.733Z,77982.97
2023-04-05T05:35:10.606Z,77974.81
2023-04-05T05:37:38.475Z,77958.50
2023-04-05T05:40:07.355Z,77954.41
2023-04-05T05:42:35.137Z,77942.16
2023-04-05T05:45:06.460Z,77934.00
2023-04-05T05:47:34.338Z,77913.63
2023-04-05T05:50:02.116Z,77903.41
2023-04-05T05:52:29.897Z,77897.28
2023-04-05T05:54:57.626Z,77885.06
2023-04-05T05:57:25.736Z,77864.66
2023-04-05T05:59:53.496Z,77862.63
2023-04-05T06:02:22.564Z,77852.41
2023-04-05T06:04:51.004Z,77842.22
2023-04-05T06:07:18.928Z,77827.94
2023-04-05T06:09:47.634Z,77836.09
2023-04-05T06:12:15.449Z,77823.84
2023-04-05T06:14:43.260Z,77809.59
2023-04-05T06:17:11.274Z,77799.38
2023-04-05T06:19:40.671Z,77791.22
2023-04-05T06:22:08.380Z,77778.97
2023-04-05T06:24:36.349Z,77764.72
2023-04-05T06:27:04.417Z,77754.50
2023-04-05T06:29:32.232Z,77742.28
2023-04-05T06:32:00.048Z,77742.28
2023-04-05T06:34:27.894Z,77719.84
2023-04-05T06:36:57.016Z,77713.72
2023-04-05T06:39:24.732Z,77705.56
2023-04-05T06:41:52.513Z,77693.31
2023-04-05T06:44:20.258Z,77672.91
2023-04-05T06:46:48.021Z,77670.88
2023-04-05T06:49:16.061Z,77652.53
2023-04-05T06:51:43.832Z,77664.75
2023-04-05T06:54:12.915Z,77662.72
2023-04-05T06:56:40.716Z,77632.13
2023-04-05T06:59:08.499Z,77626.00
2023-04-05T07:01:36.349Z,77615.81
2023-04-05T07:04:04.374Z,77607.66
2023-04-05T07:06:34.611Z,77589.28
2023-04-05T07:09:03.722Z,77579.09
2023-04-05T07:11:33.007Z,77566.84
2023-04-05T07:14:00.945Z,77546.47
2023-04-05T07:16:29.048Z,77513.81
2023-04-05T07:18:57.417Z,77485.28
2023-04-05T07:21:25.321Z,77464.88
2023-04-05T07:23:55.955Z,77446.50
2023-04-05T07:26:23.752Z,77430.19
2023-04-05T07:28:53.464Z,77430.19
2023-04-05T07:31:21.297Z,77428.16
2023-04-05T07:33:49.069Z,77405.72
2023-04-05T07:36:16.827Z,77364.94
2023-04-05T07:38:44.994Z,77330.25
2023-04-05T07:41:12.820Z,77324.13
2023-04-05T07:43:40.560Z,77305.78
2023-04-05T07:46:09.699Z,77256.84
2023-04-05T07:48:37.561Z,77238.47
2023-04-05T07:51:07.140Z,77228.28
2023-04-05T07:53:35.631Z,77232.38
2023-04-05T07:56:05.002Z,77207.88
2023-04-05T07:58:32.862Z,77167.09
2023-04-05T08:01:01.765Z,77158.94
2023-04-05T08:03:32.265Z,77150.78
2023-04-05T08:06:00.049Z,77148.75
2023-04-05T08:08:27.845Z,77130.41
2023-04-05T08:10:55.745Z,77124.28
2023-04-05T08:13:23.687Z,77114.06
2023-04-05T08:15:51.635Z,77118.16
2023-04-05T08:18:19.466Z,77142.63
2023-04-05T08:20:52.260Z,77089.59
2023-04-05T08:23:20.125Z,77065.13
2023-04-05T08:25:48.196Z,77040.66
2023-04-05T08:28:16.276Z,77069.22
2023-04-05T08:30:45.272Z,77059.00
2023-04-05T08:33:13.396Z,77040.66
2023-04-05T08:35:43.017Z,77028.41
2023-04-05T08:38:12.837Z,76975.41
2023-04-05T08:40:43.551Z,76979.47
2023-04-05T08:43:14.916Z,76940.72
2023-04-05T08:45:48.691Z,76865.28
2023-04-05T08:48:17.143Z,76848.97
2023-04-05T08:50:51.689Z,76851.00
2023-04-05T08:53:21.535Z,76834.69
2023-04-05T08:55:51.205Z,76820.41
2023-04-05T08:58:21.993Z,76783.72
2023-04-05T09:00:51.251Z,76763.31
2023-04-05T09:03:23.291Z,76795.94
2023-04-05T09:05:52.671Z,76775.56
2023-04-05T09:08:22.313Z,76791.88
2023-04-05T09:10:50.980Z,76853.03
2023-04-05T09:13:18.746Z,76869.34
2023-04-05T09:15:50.367Z,76869.34
2023-04-05T09:18:26.752Z,76834.69
2023-04-05T09:20:58.690Z,76883.63
2023-04-05T09:23:29.800Z,76867.31
2023-04-05T09:25:57.645Z,76885.66
2023-04-05T09:28:41.226Z,76897.91
2023-04-05T09:31:09.118Z,76893.81
2023-04-05T09:33:37.663Z,76879.56
2023-04-05T09:36:05.841Z,76879.56
2023-04-05T09:38:47.670Z,76883.63
2023-04-05T09:41:15.531Z,76865.28
2023-04-05T09:43:43.867Z,76855.09
2023-04-05T09:46:31.600Z,76826.53
2023-04-05T09:48:59.675Z,76789.81
2023-04-05T09:51:34.540Z,76744.97
2023-04-05T09:54:06.140Z,76732.72
2023-04-05T09:56:36.069Z,76747.00
2023-04-05T09:59:07.476Z,76738.84
2023-04-05T10:01:35.510Z,76700.09
2023-04-05T10:04:04.010Z,76677.69
2023-04-05T10:06:39.714Z,76661.38
2023-04-05T10:09:10.963Z,76677.69
2023-04-05T10:11:40.033Z,76679.72
2023-04-05T10:14:09.811Z,76636.91
2023-04-05T10:16:43.747Z,76604.28
2023-04-05T10:19:18.463Z,76561.44
2023-04-05T10:21:47.982Z,76522.69
2023-04-05T10:24:24.614Z,76481.91
2023-04-05T10:27:01.124Z,76488.03
2023-04-05T10:29:39.212Z,76455.41
2023-04-05T10:32:14.987Z,76479.88
2023-04-05T10:34:46.333Z,76461.53
2023-04-05T10:37:25.285Z,76475.81
2023-04-05T10:39:58.270Z,76524.75
2023-04-05T10:42:29.276Z,76518.63
2023-04-05T10:45:03.409Z,76510.47
2023-04-05T10:47:37.529Z,76539.00
2023-04-05T10:50:09.895Z,76534.94
2023-04-05T10:52:38.699Z,76522.69
2023-04-05T10:55:11.125Z,76506.38
2023-04-05T10:57:40.039Z,76473.75
2023-04-05T11:00:11.653Z,76404.44
2023-04-05T11:02:40.298Z,76343.28
2023-04-05T11:05:29.037Z,76384.06
2023-04-05T11:08:01.990Z,76345.31
2023-04-05T11:10:31.848Z,76392.22
2023-04-05T11:13:08.168Z,76420.75
2023-04-05T11:15:36.947Z,76432.97
2023-04-05T11:18:07.215Z,76465.63
2023-04-05T11:20:48.718Z,76437.06
2023-04-05T11:23:18.723Z,76490.06
2023-04-05T11:25:55.654Z,76500.28
2023-04-05T11:28:26.288Z,76518.63
2023-04-05T11:30:58.786Z,76522.69
2023-04-05T11:33:56.844Z,76432.97
2023-04-05T11:36:45.982Z,76494.16
2023-04-05T11:39:29.694Z,76461.53
2023-04-05T11:42:01.613Z,76492.13
2023-04-05T11:44:31.750Z,76536.97
2023-04-05T11:46:59.547Z,76536.97
2023-04-05T11:49:27.301Z,76496.19
2023-04-05T11:51:55.717Z,76526.78
2023-04-05T11:54:34.087Z,76539.00
2023-04-05T11:57:05.305Z,76536.97
2023-04-05T11:59:34.910Z,76545.13
2023-04-05T12:02:05.626Z,76530.84
2023-04-05T12:04:36.290Z,76543.09
2023-04-05T12:07:12.350Z,76557.38
2023-04-05T12:10:11.735Z,76565.53
2023-04-05T12:12:42.639Z,76547.16
2023-04-05T12:15:14.090Z,76545.13
2023-04-05T12:17:43.692Z,76567.56
2023-04-05T12:20:12.818Z,76583.88
2023-04-05T12:22:42.401Z,76514.53
2023-04-05T12:25:11.382Z,76467.66
2023-04-05T12:27:41.746Z,76367.75
2023-04-05T12:30:11.629Z,76316.75
2023-04-05T12:32:43.679Z,76286.19
2023-04-05T12:35:17.011Z,76298.41
2023-04-05T12:37:45.737Z,76273.94
2023-04-05T12:40:14.564Z,76184.25
2023-04-05T12:42:46.737Z,76151.63
2023-04-05T12:45:16.553Z,76123.06
2023-04-05T12:47:53.318Z,76090.44
2023-04-05T12:50:28.795Z,76102.69
2023-04-05T12:52:58.311Z,76082.28
2023-04-05T12:55:26.714Z,76147.53
2023-04-05T12:57:59.452Z,76151.63
2023-04-05T13:00:28.918Z,76143.47
2023-04-05T13:02:58.933Z,76078.22
2023-04-05T13:05:28.675Z,76053.75
2023-04-05T13:07:56.481Z,76100.66
2023-04-05T13:10:26.807Z,76114.91
2023-04-05T13:12:56.004Z,76176.09
2023-04-05T13:15:23.752Z,76151.63
2023-04-05T13:17:53.349Z,76163.84
2023-04-05T13:20:22.000Z,76159.78
2023-04-05T13:22:49.787Z,76127.16
2023-04-05T13:25:17.715Z,76119.00
2023-04-05T13:27:45.664Z,76167.94
2023-04-05T13:30:15.092Z,76161.81
2023-04-05T13:32:43.117Z,76229.09
2023-04-05T13:35:11.317Z,76237.25
2023-04-05T13:37:39.521Z,76298.41
2023-04-05T13:40:08.759Z,76310.66
2023-04-05T13:42:36.609Z,76314.72
2023-04-05T13:45:04.719Z,76355.50
2023-04-05T13:47:33.859Z,76388.13
2023-04-05T13:50:02.717Z,76371.81
2023-04-05T13:52:30.585Z,76361.63
2023-04-05T13:55:01.850Z,76367.75
2023-04-05T13:57:30.838Z,76379.97
2023-04-05T13:59:58.647Z,76404.44
2023-04-05T14:02:27.299Z,76420.75
2023-04-05T14:04:56.576Z,76408.53
2023-04-05T14:07:25.389Z,76428.91
2023-04-05T14:09:53.120Z,76449.28
2023-04-05T14:12:21.043Z,76441.16
2023-04-05T14:14:48.853Z,76453.38
2023-04-05T14:17:16.670Z,76430.94
2023-04-05T14:19:44.571Z,76451.34
2023-04-05T14:22:13.716Z,76465.63
2023-04-05T14:24:41.518Z,76457.44
2023-04-05T14:27:09.396Z,76465.63
2023-04-05T14:29:37.180Z,76473.75
2023-04-05T14:32:05.483Z,76449.28
2023-04-05T14:34:33.837Z,76400.38
2023-04-05T14:37:04.086Z,76355.50
2023-04-05T14:39:35.998Z,76341.22
2023-04-05T14:42:04.028Z,76347.34
2023-04-05T14:44:31.806Z,76339.19
2023-04-05T14:46:59.596Z,76359.59
2023-04-05T14:49:27.430Z,76329.00
2023-04-05T14:51:55.381Z,76312.69
2023-04-05T14:54:23.217Z,76308.59
2023-04-05T14:56:52.367Z,76273.94
2023-04-05T14:59:20.188Z,76255.59
2023-04-05T15:01:48.350Z,76263.75
2023-04-05T15:04:16.229Z,76310.66
2023-04-05T15:06:44.166Z,76302.50
2023-04-05T15:09:11.940Z,76290.25
2023-04-05T15:11:40.291Z,76310.66
2023-04-05T15:14:15.381Z,76292.28
2023-04-05T15:16:49.161Z,76326.97
2023-04-05T15:19:17.145Z,76310.66
2023-04-05T15:21:45.508Z,76302.50
2023-04-05T15:24:13.410Z,76294.34
2023-04-05T15:26:41.797Z,76306.56
2023-04-05T15:29:11.079Z,76284.16
2023-04-05T15:31:39.554Z,76290.25
2023-04-05T15:34:08.449Z,76302.50
2023-04-05T15:36:36.342Z,76310.66
2023-04-05T15:39:05.191Z,76302.50
2023-04-05T15:41:34.632Z,76302.50
2023-04-05T15:44:03.613Z,76353.47
2023-04-05T15:46:33.262Z,76343.28
2023-04-05T15:49:01.455Z,76373.84
2023-04-05T15:51:29.516Z,76371.81
2023-04-05T15:53:57.794Z,76384.06
2023-04-05T15:56:25.578Z,76404.44
2023-04-05T15:58:53.478Z,76414.63
2023-04-05T16:01:21.429Z,76408.53
2023-04-05T16:03:50.812Z,76435.03
2023-04-05T16:06:18.750Z,76428.91
2023-04-05T16:08:46.560Z,76420.75
2023-04-05T16:11:14.362Z,76432.97
2023-04-05T16:13:42.162Z,76457.44
2023-04-05T16:16:10.046Z,76457.44
2023-04-05T16:18:37.878Z,76457.44
2023-04-05T16:21:07.299Z,76469.69
2023-04-05T16:23:35.209Z,76467.66
2023-04-05T16:26:03.100Z,76473.75
2023-04-05T16:28:31.218Z,76461.53
2023-04-05T16:31:00.050Z,76483.97
2023-04-05T16:33:27.992Z,76510.47
2023-04-05T16:35:56.080Z,76481.91
2023-04-05T16:38:25.513Z,76483.97
2023-04-05T16:40:53.329Z,76486.00
2023-04-05T16:43:21.164Z,76492.13
2023-04-05T16:45:49.144Z,76522.69
2023-04-05T16:48:17.410Z,76530.84
2023-04-05T16:50:45.247Z,76534.94
2023-04-05T16:53:14.979Z,76522.69
2023-04-05T16:55:44.207Z,76514.53
2023-04-05T16:58:11.972Z,76516.59
2023-04-05T17:00:39.822Z,76534.94
2023-04-05T17:03:07.670Z,76518.63
2023-04-05T17:05:35.507Z,76539.00
2023-04-05T17:08:03.331Z,76547.16
2023-04-05T17:10:31.167Z,76577.75
2023-04-05T17:13:00.805Z,76567.56
2023-04-05T17:15:28.711Z,76579.78
2023-04-05T17:17:56.525Z,76594.06
2023-04-05T17:20:24.713Z,76604.28
2023-04-05T17:22:52.563Z,76628.72
2023-04-05T17:25:20.686Z,76614.47
2023-04-05T17:27:48.536Z,76630.78
2023-04-05T17:30:18.217Z,76645.03
2023-04-05T17:32:46.133Z,76657.28
2023-04-05T17:35:13.961Z,76673.59
2023-04-05T17:37:41.802Z,76683.78
2023-04-05T17:40:10.403Z,76685.81
2023-04-05T17:42:38.181Z,76702.16
2023-04-05T17:45:07.378Z,76718.47
2023-04-05T17:47:36.885Z,76744.97
2023-04-05T17:50:05.369Z,76751.09
2023-04-05T17:52:33.231Z,76775.56
2023-04-05T17:55:01.029Z,76775.56
2023-04-05T17:57:28.819Z,76793.91
2023-04-05T17:59:57.400Z,76804.09
2023-04-05T18:02:25.386Z,76812.25
2023-04-05T18:04:54.660Z,76834.69
2023-04-05T18:07:22.492Z,76840.81
2023-04-05T18:09:50.326Z,76853.03
2023-04-05T18:12:18.145Z,76887.72
2023-04-05T18:14:46.251Z,76901.97
2023-04-05T18:17:14.086Z,76938.69
2023-04-05T18:19:41.855Z,76955.00
2023-04-05T18:22:11.240Z,76979.47
2023-04-05T18:24:39.023Z,76991.72
2023-04-05T18:27:06.809Z,76995.78
2023-04-05T18:29:37.984Z,77016.19
2023-04-05T18:32:06.558Z,77020.25
2023-04-05T18:34:34.689Z,77032.50
2023-04-05T18:37:02.981Z,77048.81
2023-04-05T18:39:32.503Z,77063.09
2023-04-05T18:42:00.659Z,77077.38
2023-04-05T18:44:28.415Z,77089.59
2023-04-05T18:46:58.947Z,77099.81
2023-04-05T18:49:27.021Z,77105.91
2023-04-05T18:51:55.902Z,77112.03
2023-04-05T18:54:24.405Z,77122.22
2023-04-05T18:56:53.762Z,77130.41
2023-04-05T18:59:21.949Z,77150.78
2023-04-05T19:01:49.786Z,77169.16
2023-04-05T19:04:18.083Z,77189.53
2023-04-05T19:06:45.877Z,77199.72
2023-04-05T19:09:13.691Z,77211.97
2023-04-05T19:11:41.604Z,77224.22
2023-04-05T19:14:10.883Z,77228.28
2023-04-05T19:16:38.763Z,77228.28
2023-04-05T19:19:07.332Z,77232.38
2023-04-05T19:21:35.884Z,77224.22
2023-04-05T19:24:03.763Z,77218.09
2023-04-05T19:26:32.075Z,77222.16
2023-04-05T19:28:59.854Z,77220.13
2023-04-05T19:31:29.712Z,77207.88
2023-04-05T19:33:57.634Z,77232.38
2023-04-05T19:36:26.036Z,77256.84
2023-04-05T19:38:53.860Z,77269.06
2023-04-05T19:41:21.710Z,77262.97
2023-04-05T19:43:50.400Z,77283.34
2023-04-05T19:46:19.119Z,77299.66
2023-04-05T19:48:48.433Z,77307.81
2023-04-05T19:51:18.135Z,77311.91
2023-04-05T19:53:49.202Z,77334.34
2023-04-05T19:56:20.335Z,77334.34
2023-04-05T19:58:49.400Z,77342.50
2023-04-05T20:01:30.766Z,77362.88
2023-04-05T20:04:00.009Z,77369.00
2023-04-05T20:06:28.447Z,77369.00
2023-04-05T20:09:02.668Z,77375.13
2023-04-05T20:11:31.373Z,77379.22
2023-04-05T20:14:01.850Z,77381.25
2023-04-05T20:16:32.053Z,77383.28
2023-04-05T20:19:02.839Z,77391.44
2023-04-05T20:21:31.082Z,77391.44
2023-04-05T20:23:59.844Z,77395.53
2023-04-05T20:26:29.820Z,77387.38
2023-04-05T20:28:59.467Z,77397.56
2023-04-05T20:31:29.377Z,77407.75
2023-04-05T20:33:58.780Z,77413.88
2023-04-05T20:36:32.642Z,77422.03
2023-04-05T20:39:01.760Z,77424.09
2023-04-05T20:41:31.455Z,77432.25
2023-04-05T20:43:59.953Z,77436.31
2023-04-05T20:46:28.550Z,77432.25
2023-04-05T20:48:57.529Z,77436.31
2023-04-05T20:51:25.618Z,77444.47
2023-04-05T20:53:54.918Z,77456.72
2023-04-05T20:56:22.858Z,77464.88
2023-04-05T20:58:50.665Z,77464.88
2023-04-05T21:01:19.831Z,77481.19
2023-04-05T21:03:47.693Z,77487.31
2023-04-05T21:06:15.505Z,77491.38
2023-04-05T21:08:43.413Z,77495.47
2023-04-05T21:11:12.687Z,77495.47
2023-04-05T21:13:41.509Z,77501.59
2023-04-05T21:16:09.602Z,77497.50
2023-04-05T21:18:37.609Z,77493.44
2023-04-05T21:21:08.572Z,77499.53
2023-04-05T21:23:36.423Z,77501.59
2023-04-05T21:26:05.687Z,77509.75
2023-04-05T21:28:34.848Z,77511.78
2023-04-05T21:31:02.730Z,77526.06
2023-04-05T21:33:30.638Z,77528.09
2023-04-05T21:35:58.495Z,77538.28
2023-04-05T21:38:26.322Z,77534.22
2023-04-05T21:40:55.429Z,77530.13
2023-04-05T21:43:23.475Z,77538.28
2023-04-05T21:45:53.177Z,77542.38
2023-04-05T21:48:21.247Z,77538.28
2023-04-05T21:50:49.093Z,77546.47
2023-04-05T21:53:17.007Z,77544.41
2023-04-05T21:55:44.780Z,77554.63
2023-04-05T21:58:12.574Z,77558.69
2023-04-05T22:00:40.487Z,77560.72
2023-04-05T22:03:09.679Z,77562.78
2023-04-05T22:05:38.867Z,77566.84
2023-04-05T22:08:08.147Z,77562.78
2023-04-05T22:10:37.498Z,77566.84
2023-04-05T22:13:05.363Z,77575.00
2023-04-05T22:15:33.215Z,77579.09
2023-04-05T22:18:01.062Z,77583.16
2023-04-05T22:20:30.370Z,77583.16
2023-04-05T22:22:58.245Z,77587.25
2023-04-05T22:25:26.401Z,77583.16
2023-04-05T22:27:59.514Z,77585.22
2023-04-05T22:30:28.350Z,77583.16
2023-04-05T22:32:56.408Z,77579.09
2023-04-05T22:35:24.202Z,77583.16
2023-04-05T22:37:53.405Z,77581.13
2023-04-05T22:40:27.364Z,77579.09
2023-04-05T22:42:55.213Z,77572.97
2023-04-05T22:45:23.627Z,77583.16
2023-04-05T22:47:51.538Z,77575.00
2023-04-05T22:50:19.720Z,77575.00
2023-04-05T22:52:47.627Z,77562.78
2023-04-05T22:55:16.936Z,77570.94
2023-04-05T22:57:44.786Z,77570.94
2023-04-05T23:00:14.285Z,77579.09
2023-04-05T23:02:42.144Z,77587.25
2023-04-05T23:05:11.008Z,77579.09
2023-04-05T23:07:38.821Z,77583.16
2023-04-05T23:10:07.267Z,77577.06
2023-04-05T23:12:36.704Z,77572.97
2023-04-05T23:15:05.118Z,77566.84
2023-04-05T23:17:32.959Z,77562.78
2023-04-05T23:20:00.830Z,77564.81
2023-04-05T23:22:28.607Z,77558.69
2023-04-05T23:24:56.416Z,77554.63
2023-04-05T23:27:24.277Z,77564.81
2023-04-05T23:29:53.410Z,77577.06
2023-04-05T23:32:21.524Z,77587.25
2023-04-05T23:34:50.189Z,77593.38
2023-04-05T23:37:18.072Z,77599.50
2023-04-05T23:39:46.050Z,77605.59
2023-04-05T23:42:14.566Z,77603.56
2023-04-05T23:44:42.353Z,77593.38
2023-04-05T23:47:11.455Z,77601.53
2023-04-05T23:49:39.370Z,77607.66
2023-04-05T23:52:07.204Z,77605.59
2023-04-05T23:54:35.060Z,77611.72
2023-04-05T23:57:02.979Z,77611.72
2023-04-05T23:59:30.906Z,77615.81
